createdAt,value
2019-03-23T00:02:17.504Z,9.78
2019-03-23T00:04:47.847Z,9.64
2019-03-23T00:07:18.064Z,9.56
2019-03-23T00:09:48.253Z,9.42
2019-03-23T00:12:18.689Z,9.33
2019-03-23T00:14:48.893Z,9.27
2019-03-23T00:17:19.080Z,9.24
2019-03-23T00:19:49.285Z,9.22
2019-03-23T00:22:19.553Z,9.24
2019-03-23T00:24:49.755Z,9.17
2019-03-23T00:27:19.965Z,9.17
2019-03-23T00:29:50.330Z,9.13
2019-03-23T00:32:20.523Z,9.15
2019-03-23T00:34:50.744Z,9.18
2019-03-23T00:37:20.940Z,9.15
2019-03-23T00:39:51.190Z,9.23
2019-03-23T00:42:21.689Z,9.14
2019-03-23T00:44:51.909Z,8.93
2019-03-23T00:47:22.386Z,8.82
2019-03-23T00:49:52.683Z,8.73
2019-03-23T00:52:22.886Z,8.71
2019-03-23T00:54:53.265Z,8.65
2019-03-23T00:57:23.532Z,8.60
2019-03-23T00:59:55.105Z,8.60
2019-03-23T01:02:27.351Z,8.64
2019-03-23T01:04:57.713Z,8.65
2019-03-23T01:07:28.025Z,8.61
2019-03-23T01:09:58.212Z,8.56
2019-03-23T01:12:28.589Z,8.50
2019-03-23T01:14:59.216Z,8.43
2019-03-23T01:17:29.410Z,8.37
2019-03-23T01:19:59.651Z,8.27
2019-03-23T01:22:29.864Z,8.31
2019-03-23T01:25:00.355Z,8.28
2019-03-23T01:27:30.555Z,8.32
2019-03-23T01:30:02.036Z,8.30
2019-03-23T01:32:32.498Z,8.30
2019-03-23T01:35:02.703Z,8.25
2019-03-23T01:37:33.211Z,8.22
2019-03-23T01:40:04.073Z,8.27
2019-03-23T01:42:34.277Z,8.32
2019-03-23T01:45:06.927Z,8.44
2019-03-23T01:47:37.187Z,8.50
2019-03-23T01:50:08.104Z,8.49
2019-03-23T01:52:38.817Z,8.46
2019-03-23T01:55:09.563Z,8.50
2019-03-23T01:57:40.309Z,8.47
2019-03-23T02:00:11.787Z,8.51
2019-03-23T02:02:43.410Z,8.54
2019-03-23T02:05:14.005Z,8.60
2019-03-23T02:07:44.189Z,8.64
2019-03-23T02:10:14.670Z,8.68
2019-03-23T02:12:44.885Z,8.68
2019-03-23T02:15:15.769Z,8.70
2019-03-23T02:17:45.987Z,8.70
2019-03-23T02:20:16.358Z,8.76
2019-03-23T02:22:46.565Z,8.81
2019-03-23T02:25:17.040Z,8.82
2019-03-23T02:27:47.242Z,8.90
2019-03-23T02:30:17.733Z,8.92
2019-03-23T02:32:47.930Z,8.98
2019-03-23T02:35:18.143Z,9.04
2019-03-23T02:37:48.358Z,9.02
2019-03-23T02:40:18.650Z,9.01
2019-03-23T02:42:49.132Z,9.02
2019-03-23T02:45:19.690Z,9.02
2019-03-23T02:47:49.975Z,9.04
2019-03-23T02:50:20.198Z,9.02
2019-03-23T02:52:52.683Z,8.96
2019-03-23T02:55:23.078Z,8.96
2019-03-23T02:57:53.303Z,9.07
2019-03-23T03:00:23.506Z,9.04
2019-03-23T03:02:53.735Z,9.06
2019-03-23T03:05:23.962Z,9.05
2019-03-23T03:07:54.338Z,9.11
2019-03-23T03:10:50.323Z,9.08
2019-03-23T03:13:20.771Z,9.04
2019-03-23T03:15:51.533Z,9.06
2019-03-23T03:18:22.031Z,9.05
2019-03-23T03:20:52.254Z,9.14
2019-03-23T03:23:22.528Z,9.20
2019-03-23T03:25:52.979Z,9.26
2019-03-23T03:28:23.197Z,9.32
2019-03-23T03:30:53.429Z,9.34
2019-03-23T03:33:23.898Z,9.39
2019-03-23T03:35:54.462Z,9.41
2019-03-23T03:38:24.686Z,9.46
2019-03-23T03:40:54.893Z,9.47
2019-03-23T03:43:25.195Z,9.47
2019-03-23T03:45:55.674Z,9.51
2019-03-23T03:48:25.879Z,9.54
2019-03-23T03:50:56.156Z,9.56
2019-03-23T03:53:27.001Z,9.57
2019-03-23T03:55:57.280Z,9.58
2019-03-23T03:58:27.629Z,9.55
2019-03-23T04:00:57.843Z,9.57
2019-03-23T04:03:28.055Z,9.60
2019-03-23T04:05:58.440Z,9.65
2019-03-23T04:08:28.918Z,9.67
2019-03-23T04:10:59.186Z,9.71
2019-03-23T04:13:29.390Z,9.69
2019-03-23T04:15:59.613Z,9.70
2019-03-23T04:18:30.794Z,9.64
2019-03-23T04:21:02.262Z,9.65
2019-03-23T04:23:32.467Z,9.61
2019-03-23T04:26:02.736Z,9.61
2019-03-23T04:28:32.958Z,9.63
2019-03-23T04:31:03.377Z,9.65
2019-03-23T04:33:33.997Z,9.65
2019-03-23T04:36:04.519Z,9.66
2019-03-23T04:38:34.713Z,9.66
2019-03-23T04:41:05.729Z,9.70
2019-03-23T04:43:36.006Z,9.74
2019-03-23T04:46:06.711Z,9.77
2019-03-23T04:48:36.980Z,9.73
2019-03-23T04:51:07.203Z,9.76
2019-03-23T04:53:37.817Z,9.75
2019-03-23T04:56:08.029Z,9.75
2019-03-23T04:58:38.312Z,9.78
2019-03-23T05:01:08.509Z,9.77
2019-03-23T05:03:38.742Z,9.78
2019-03-23T05:06:09.229Z,9.79
2019-03-23T05:08:39.593Z,9.76
2019-03-23T05:11:09.788Z,9.75
2019-03-23T05:13:40.250Z,9.75
2019-03-23T05:16:10.440Z,9.73
2019-03-23T05:18:41.045Z,9.71
2019-03-23T05:21:11.233Z,9.71
2019-03-23T05:23:41.477Z,9.72
2019-03-23T05:26:11.653Z,9.71
2019-03-23T05:28:41.879Z,9.69
2019-03-23T05:31:12.242Z,9.67
2019-03-23T05:33:42.456Z,9.66
2019-03-23T05:36:12.647Z,9.68
2019-03-23T05:38:44.621Z,9.65
2019-03-23T05:41:14.849Z,9.69
2019-03-23T05:43:45.304Z,9.71
2019-03-23T05:46:15.521Z,9.70
2019-03-23T05:48:46.043Z,9.69
2019-03-23T05:51:16.981Z,9.72
2019-03-23T05:53:47.459Z,9.72
2019-03-23T05:56:17.683Z,9.70
2019-03-23T05:58:48.157Z,9.72
2019-03-23T06:01:18.693Z,9.73
2019-03-23T06:03:49.130Z,9.71
2019-03-23T06:06:19.514Z,9.72
2019-03-23T06:08:54.821Z,9.76
2019-03-23T06:11:21.618Z,9.82
2019-03-23T06:13:52.005Z,9.85
2019-03-23T06:16:22.400Z,9.87
2019-03-23T06:18:52.603Z,9.83
2019-03-23T06:21:23.017Z,9.83
2019-03-23T06:23:53.476Z,9.86
2019-03-23T06:26:23.678Z,9.89
2019-03-23T06:28:53.879Z,9.92
2019-03-23T06:31:24.119Z,9.89
2019-03-23T06:33:54.300Z,9.90
2019-03-23T06:36:24.594Z,9.88
2019-03-23T06:39:04.851Z,9.88
2019-03-23T06:41:26.732Z,9.89
2019-03-23T06:43:56.969Z,9.91
2019-03-23T06:46:27.170Z,9.94
2019-03-23T06:48:57.570Z,10.00
2019-03-23T06:51:27.936Z,10.04
2019-03-23T06:53:58.154Z,10.08
2019-03-23T06:56:28.514Z,10.10
2019-03-23T06:58:59.066Z,10.11
2019-03-23T07:01:29.430Z,10.14
2019-03-23T07:03:59.668Z,10.17
2019-03-23T07:06:29.909Z,10.23
2019-03-23T07:09:00.128Z,10.28
2019-03-23T07:11:30.565Z,10.33
2019-03-23T07:14:01.039Z,10.40
2019-03-23T07:16:31.494Z,10.45
2019-03-23T07:19:01.723Z,10.43
2019-03-23T07:21:32.215Z,10.43
2019-03-23T07:24:02.403Z,10.47
2019-03-23T07:26:32.793Z,10.54
2019-03-23T07:29:03.015Z,10.56
2019-03-23T07:31:33.226Z,10.56
2019-03-23T07:34:06.177Z,10.65
2019-03-23T07:36:36.665Z,10.71
2019-03-23T07:39:08.345Z,10.76
2019-03-23T07:41:39.061Z,10.79
2019-03-23T07:44:09.281Z,10.87
2019-03-23T07:46:39.500Z,10.93
2019-03-23T07:49:09.777Z,10.95
2019-03-23T07:51:40.288Z,11.00
2019-03-23T07:54:10.836Z,11.03
2019-03-23T07:56:41.028Z,11.07
2019-03-23T07:59:11.404Z,11.11
2019-03-23T08:01:41.607Z,11.14
2019-03-23T08:04:11.896Z,11.17
2019-03-23T08:06:42.702Z,11.22
2019-03-23T08:09:20.327Z,11.32
2019-03-23T08:11:45.443Z,11.35
2019-03-23T08:14:16.905Z,11.34
2019-03-23T08:16:47.325Z,11.35
2019-03-23T08:19:17.898Z,11.35
2019-03-23T08:21:48.112Z,11.42
2019-03-23T08:24:18.342Z,11.45
2019-03-23T08:26:49.706Z,11.51
2019-03-23T08:29:20.171Z,11.53
2019-03-23T08:31:50.364Z,11.57
2019-03-23T08:34:20.577Z,11.68
2019-03-23T08:36:50.802Z,11.73
2019-03-23T08:39:21.248Z,11.73
2019-03-23T08:41:51.480Z,11.72
2019-03-23T08:44:21.678Z,11.70
2019-03-23T08:46:52.052Z,11.76
2019-03-23T08:49:22.546Z,11.87
2019-03-23T08:51:52.832Z,11.98
2019-03-23T08:54:23.047Z,12.03
2019-03-23T08:56:53.443Z,12.11
2019-03-23T08:59:23.659Z,12.17
2019-03-23T09:01:53.870Z,12.25
2019-03-23T09:04:24.093Z,12.32
2019-03-23T09:06:54.284Z,12.39
2019-03-23T09:09:24.504Z,12.39
2019-03-23T09:11:54.978Z,12.40
2019-03-23T09:14:25.193Z,12.45
2019-03-23T09:19:45.689Z,12.55
2019-03-23T09:22:15.897Z,12.50
2019-03-23T09:24:46.133Z,12.48
2019-03-23T09:27:16.544Z,12.53
2019-03-23T09:29:46.973Z,12.58
2019-03-23T09:32:17.180Z,12.59
2019-03-23T09:34:47.388Z,12.57
2019-03-23T09:37:17.588Z,12.54
2019-03-23T09:39:47.921Z,12.52
2019-03-23T09:42:18.095Z,12.52
2019-03-23T09:44:48.680Z,12.59
2019-03-23T09:47:19.069Z,12.60
2019-03-23T09:49:49.279Z,12.62
2019-03-23T09:52:19.491Z,12.70
2019-03-23T09:54:49.703Z,12.73
2019-03-23T09:57:19.916Z,12.65
2019-03-23T09:59:50.138Z,12.67
2019-03-23T10:02:20.397Z,12.71
2019-03-23T10:04:50.858Z,12.71
2019-03-23T10:07:21.083Z,12.69
2019-03-23T10:09:51.340Z,12.70
2019-03-23T10:12:21.565Z,12.69
2019-03-23T10:14:51.770Z,12.70
2019-03-23T10:17:22.401Z,12.69
2019-03-23T10:19:52.596Z,12.66
2019-03-23T10:22:23.786Z,12.72
2019-03-23T10:24:54.063Z,12.79
2019-03-23T10:27:24.261Z,12.90
2019-03-23T10:29:55.029Z,12.97
2019-03-23T10:32:25.343Z,13.03
2019-03-23T10:34:55.535Z,13.04
2019-03-23T10:37:26.158Z,13.10
2019-03-23T10:39:56.330Z,13.11
2019-03-23T10:42:26.765Z,13.18
2019-03-23T10:44:56.996Z,13.21
2019-03-23T10:47:27.571Z,13.25
2019-03-23T10:49:57.785Z,13.31
2019-03-23T10:52:27.960Z,13.31
2019-03-23T10:54:58.174Z,13.32
2019-03-23T10:57:28.364Z,13.40
2019-03-23T10:59:58.602Z,13.51
2019-03-23T11:02:28.817Z,13.56
2019-03-23T11:04:59.016Z,13.56
2019-03-23T11:07:29.206Z,13.55
2019-03-23T11:10:00.460Z,13.53
2019-03-23T11:12:30.657Z,13.49
2019-03-23T11:15:00.862Z,13.54
2019-03-23T11:17:31.063Z,13.55
2019-03-23T11:20:01.282Z,13.51
2019-03-23T11:22:31.485Z,13.50
2019-03-23T11:25:01.695Z,13.56
2019-03-23T11:27:31.896Z,13.65
2019-03-23T11:30:02.102Z,13.67
2019-03-23T11:32:32.599Z,13.66
2019-03-23T11:35:02.828Z,13.60
2019-03-23T11:37:33.147Z,13.60
2019-03-23T11:40:03.450Z,13.59
2019-03-23T11:42:33.655Z,13.63
2019-03-23T11:45:03.983Z,13.69
2019-03-23T11:47:34.180Z,13.73
2019-03-23T11:50:04.917Z,13.79
2019-03-23T11:52:35.131Z,13.81
2019-03-23T11:55:06.351Z,13.80
2019-03-23T11:57:37.526Z,13.85
2019-03-23T12:00:09.346Z,13.86
2019-03-23T12:02:39.805Z,13.88
2019-03-23T12:05:10.284Z,13.92
2019-03-23T12:07:40.489Z,13.98
2019-03-23T12:10:12.747Z,14.09
2019-03-23T12:12:43.364Z,14.16
2019-03-23T12:15:14.365Z,14.18
2019-03-23T12:17:44.560Z,14.24
2019-03-23T12:20:14.956Z,14.26
2019-03-23T12:22:45.160Z,14.32
2019-03-23T12:25:15.365Z,14.35
2019-03-23T12:27:45.731Z,14.31
2019-03-23T12:30:16.685Z,14.32
2019-03-23T12:32:46.904Z,14.42
2019-03-23T12:35:17.132Z,14.46
2019-03-23T12:37:47.331Z,14.41
2019-03-23T12:40:18.226Z,14.33
2019-03-23T12:42:48.447Z,14.37
2019-03-23T12:45:18.791Z,14.47
2019-03-23T12:47:48.994Z,14.56
2019-03-23T12:50:19.214Z,14.67
2019-03-23T12:52:49.425Z,14.64
2019-03-23T12:55:19.636Z,14.61
2019-03-23T12:57:49.847Z,14.49
2019-03-23T13:00:20.357Z,14.45
2019-03-23T13:02:51.037Z,14.47
2019-03-23T13:05:21.253Z,14.46
2019-03-23T13:07:52.343Z,14.48
2019-03-23T13:10:22.552Z,14.46
2019-03-23T13:12:52.782Z,14.49
2019-03-23T13:15:45.674Z,14.51
2019-03-23T13:18:15.889Z,14.52
2019-03-23T13:20:46.102Z,14.47
2019-03-23T13:23:16.299Z,14.50
2019-03-23T13:25:46.773Z,14.48
2019-03-23T13:28:16.969Z,14.53
2019-03-23T13:30:47.409Z,14.48
2019-03-23T13:33:17.618Z,14.42
2019-03-23T13:35:47.825Z,14.31
2019-03-23T13:38:18.060Z,14.38
2019-03-23T13:40:59.855Z,14.40
2019-03-23T13:43:36.067Z,14.46
2019-03-23T13:46:06.336Z,14.47
2019-03-23T13:48:36.548Z,14.35
2019-03-23T13:51:06.743Z,14.35
2019-03-23T13:53:37.779Z,14.33
2019-03-23T13:56:08.009Z,14.32
2019-03-23T13:58:38.222Z,14.22
2019-03-23T14:01:08.881Z,14.14
2019-03-23T14:03:39.337Z,14.10
2019-03-23T14:06:09.866Z,14.04
2019-03-23T14:11:28.333Z,13.98
2019-03-23T14:13:58.564Z,14.03
2019-03-23T14:16:29.029Z,14.06
2019-03-23T14:18:59.228Z,14.03
2019-03-23T14:21:29.417Z,13.98
2019-03-23T14:23:59.624Z,13.82
2019-03-23T14:26:30.019Z,13.62
2019-03-23T14:29:00.224Z,13.43
2019-03-23T14:31:30.666Z,13.28
2019-03-23T14:34:01.163Z,13.24
2019-03-23T14:36:31.365Z,13.18
2019-03-23T14:39:01.571Z,13.00
2019-03-23T14:41:32.341Z,12.92
2019-03-23T14:44:02.612Z,12.77
2019-03-23T14:46:32.830Z,12.65
2019-03-23T14:49:03.034Z,12.64
2019-03-23T14:51:33.246Z,12.53
2019-03-23T14:54:03.441Z,12.45
2019-03-23T14:56:33.802Z,12.37
2019-03-23T14:59:04.085Z,12.40
2019-03-23T15:01:34.534Z,12.43
2019-03-23T15:04:05.440Z,12.43
2019-03-23T15:06:35.664Z,12.45
2019-03-23T15:09:07.280Z,12.42
2019-03-23T15:11:37.488Z,12.42
2019-03-23T15:14:15.319Z,12.47
2019-03-23T15:16:45.534Z,12.48
2019-03-23T15:19:15.992Z,12.52
2019-03-23T15:21:46.221Z,12.56
2019-03-23T15:24:16.427Z,12.58
2019-03-23T15:26:46.628Z,12.63
2019-03-23T15:29:16.843Z,12.72
2019-03-23T15:31:47.068Z,12.73
2019-03-23T15:34:17.257Z,12.72
2019-03-23T15:36:47.460Z,12.70
2019-03-23T15:39:17.662Z,12.72
2019-03-23T15:41:49.337Z,12.71
2019-03-23T15:44:19.536Z,12.73
2019-03-23T15:46:49.750Z,12.70
2019-03-23T15:49:19.941Z,12.70
2019-03-23T15:51:50.154Z,12.69
2019-03-23T15:54:20.377Z,12.71
2019-03-23T15:56:50.579Z,12.75
2019-03-23T15:59:20.786Z,12.71
2019-03-23T16:01:50.984Z,12.68
2019-03-23T16:04:21.342Z,12.66
2019-03-23T16:06:51.532Z,12.62
2019-03-23T16:09:21.813Z,12.63
2019-03-23T16:11:52.535Z,12.64
2019-03-23T16:14:22.987Z,12.63
2019-03-23T16:16:53.195Z,12.63
2019-03-23T16:19:23.668Z,12.69
2019-03-23T16:21:53.872Z,12.65
2019-03-23T16:24:24.062Z,12.60
2019-03-23T16:26:54.272Z,12.55
2019-03-23T16:29:24.472Z,12.48
2019-03-23T16:32:00.361Z,12.44
2019-03-23T16:34:36.211Z,12.42
2019-03-23T16:37:06.854Z,12.42
2019-03-23T16:39:37.073Z,12.38
2019-03-23T16:42:07.279Z,12.35
2019-03-23T16:44:37.720Z,12.35
2019-03-23T16:47:07.923Z,12.40
2019-03-23T16:49:38.126Z,12.35
2019-03-23T16:52:08.400Z,12.36
2019-03-23T16:54:38.595Z,12.36
2019-03-23T16:57:08.798Z,12.33
2019-03-23T16:59:38.980Z,12.36
2019-03-23T17:02:09.177Z,12.30
2019-03-23T17:04:39.362Z,12.29
2019-03-23T17:07:09.564Z,12.29
2019-03-23T17:09:40.003Z,12.27
2019-03-23T17:12:10.189Z,12.26
2019-03-23T17:14:40.371Z,12.23
2019-03-23T17:17:10.564Z,12.22
2019-03-23T17:19:40.751Z,12.22
2019-03-23T17:22:10.962Z,12.14
2019-03-23T17:24:41.141Z,12.14
2019-03-23T17:27:11.484Z,12.13
2019-03-23T17:29:41.674Z,12.13
2019-03-23T17:32:11.879Z,12.09
2019-03-23T17:34:42.137Z,12.01
2019-03-23T17:37:12.330Z,11.98
2019-03-23T17:39:42.812Z,11.92
2019-03-23T17:42:13.012Z,11.91
2019-03-23T17:44:43.289Z,11.88
2019-03-23T17:47:13.584Z,11.88
2019-03-23T17:49:45.340Z,11.82
2019-03-23T17:52:15.621Z,11.77
2019-03-23T17:54:45.821Z,11.74
2019-03-23T17:57:16.097Z,11.70
2019-03-23T17:59:47.521Z,11.69
2019-03-23T18:02:17.735Z,11.65
2019-03-23T18:04:47.930Z,11.63
2019-03-23T18:07:18.120Z,11.60
2019-03-23T18:09:48.315Z,11.55
2019-03-23T18:12:18.591Z,11.52
2019-03-23T18:14:48.798Z,11.50
2019-03-23T18:17:18.998Z,11.45
2019-03-23T18:19:49.179Z,11.40
2019-03-23T18:22:19.367Z,11.35
2019-03-23T18:24:49.580Z,11.29
2019-03-23T18:27:19.756Z,11.26
2019-03-23T18:29:49.969Z,11.20
2019-03-23T18:32:20.244Z,11.15
2019-03-23T18:34:50.606Z,11.10
2019-03-23T18:37:20.807Z,11.06
2019-03-23T18:39:51.021Z,11.03
2019-03-23T18:42:21.220Z,10.96
2019-03-23T18:44:51.448Z,10.93
2019-03-23T18:47:21.787Z,10.90
2019-03-23T18:49:52.066Z,10.87
2019-03-23T18:52:22.257Z,10.83
2019-03-23T18:54:52.544Z,10.78
2019-03-23T18:57:22.738Z,10.76
2019-03-23T18:59:53.200Z,10.75
2019-03-23T19:02:23.514Z,10.71
2019-03-23T19:04:53.801Z,10.68
2019-03-23T19:07:23.954Z,10.68
2019-03-23T19:09:54.166Z,10.64
2019-03-23T19:12:24.359Z,10.57
2019-03-23T19:14:54.559Z,10.49
2019-03-23T19:17:24.756Z,10.43
2019-03-23T19:19:54.962Z,10.34
2019-03-23T19:22:25.973Z,10.24
2019-03-23T19:24:56.180Z,10.16
2019-03-23T19:27:26.382Z,10.11
2019-03-23T19:29:56.584Z,10.09
2019-03-23T19:32:26.786Z,10.02
2019-03-23T19:34:57.299Z,9.99
2019-03-23T19:37:27.494Z,9.94
2019-03-23T19:39:57.676Z,9.91
2019-03-23T19:42:27.882Z,9.83
2019-03-23T19:44:58.309Z,9.81
2019-03-23T19:47:28.603Z,9.75
2019-03-23T19:49:58.814Z,9.72
2019-03-23T19:52:29.010Z,9.64
2019-03-23T19:54:59.461Z,9.60
2019-03-23T19:57:29.642Z,9.55
2019-03-23T19:59:59.833Z,9.49
2019-03-23T20:02:30.014Z,9.44
2019-03-23T20:05:00.382Z,9.39
2019-03-23T20:07:33.249Z,9.34
2019-03-23T20:10:02.968Z,9.27
2019-03-23T20:12:33.146Z,9.27
2019-03-23T20:15:03.434Z,9.25
2019-03-23T20:17:33.703Z,9.21
2019-03-23T20:20:04.703Z,9.21
2019-03-23T20:22:35.064Z,9.15
2019-03-23T20:25:06.762Z,9.06
2019-03-23T20:27:37.917Z,9.04
2019-03-23T20:30:09.682Z,8.98
2019-03-23T20:32:39.867Z,8.92
2019-03-23T20:35:10.832Z,8.85
2019-03-23T20:37:41.020Z,8.78
2019-03-23T20:40:13.374Z,8.75
2019-03-23T20:42:44.379Z,8.74
2019-03-23T20:45:19.046Z,8.72
2019-03-23T20:47:49.755Z,8.70
2019-03-23T20:50:19.977Z,8.67
2019-03-23T20:52:50.592Z,8.58
2019-03-23T20:55:28.400Z,8.55
2019-03-23T20:57:59.157Z,8.50
2019-03-23T21:00:29.346Z,8.46
2019-03-23T21:02:59.739Z,8.40
2019-03-23T21:05:34.124Z,8.37
2019-03-23T21:08:01.991Z,8.37
2019-03-23T21:10:32.294Z,8.36
2019-03-23T21:13:02.790Z,8.34
2019-03-23T21:15:33.000Z,8.31
2019-03-23T21:18:03.385Z,8.27
2019-03-23T21:20:33.581Z,8.21
2019-03-23T21:23:03.954Z,8.16
2019-03-23T21:25:34.329Z,8.12
2019-03-23T21:28:04.774Z,8.09
2019-03-23T21:30:34.968Z,8.06
2019-03-23T21:33:05.389Z,8.01
2019-03-23T21:35:35.584Z,7.95
2019-03-23T21:38:06.089Z,7.86
2019-03-23T21:40:36.670Z,7.81
2019-03-23T21:43:06.875Z,7.78
2019-03-23T21:45:37.063Z,7.70
2019-03-23T21:48:07.823Z,7.69
2019-03-23T21:50:47.033Z,7.66
2019-03-23T21:53:11.023Z,7.66
2019-03-23T21:55:41.204Z,7.63
2019-03-23T21:58:11.395Z,7.58
2019-03-23T22:00:41.598Z,7.54
2019-03-23T22:03:11.782Z,7.52
2019-03-23T22:05:42.163Z,7.51
2019-03-23T22:08:12.417Z,7.49
2019-03-23T22:10:42.620Z,7.48
2019-03-23T22:13:12.816Z,7.41
2019-03-23T22:15:43.387Z,7.35
2019-03-23T22:18:13.574Z,7.34
2019-03-23T22:20:43.764Z,7.34
2019-03-23T22:23:13.966Z,7.35
2019-03-23T22:25:44.147Z,7.31
2019-03-23T22:28:14.375Z,7.28
2019-03-23T22:30:44.550Z,7.23
2019-03-23T22:33:14.998Z,7.17
2019-03-23T22:35:45.178Z,7.11
2019-03-23T22:38:15.683Z,7.06
2019-03-23T22:40:46.199Z,7.04
2019-03-23T22:43:16.751Z,7.03
2019-03-23T22:45:46.943Z,7.01
2019-03-23T22:48:17.435Z,7.00
2019-03-23T22:50:47.606Z,6.95
2019-03-23T22:53:17.802Z,6.89
2019-03-23T22:55:48.128Z,6.85
2019-03-23T22:58:18.339Z,6.89
2019-03-23T23:00:50.027Z,6.88
2019-03-23T23:03:21.578Z,6.83
2019-03-23T23:05:51.845Z,6.79
2019-03-23T23:08:22.348Z,6.76
2019-03-23T23:10:52.654Z,6.76
2019-03-23T23:13:22.846Z,6.74
2019-03-23T23:15:53.289Z,6.72
2019-03-23T23:18:23.499Z,6.69
2019-03-23T23:20:53.672Z,6.64
2019-03-23T23:23:24.155Z,6.58
2019-03-23T23:25:54.338Z,6.58
2019-03-23T23:28:24.711Z,6.58
2019-03-23T23:30:54.922Z,6.54
2019-03-23T23:33:25.757Z,6.53
2019-03-23T23:35:55.954Z,6.53
2019-03-23T23:38:26.321Z,6.53
2019-03-23T23:40:56.645Z,6.51
2019-03-23T23:43:26.962Z,6.49
2019-03-23T23:45:57.232Z,6.46
2019-03-23T23:48:27.421Z,6.38
2019-03-23T23:50:57.612Z,6.35
2019-03-23T23:53:28.078Z,6.35
2019-03-23T23:55:58.283Z,6.31
2019-03-23T23:58:28.456Z,6.28
